sensor_id;sensor_type;location;lat;lon;timestamp;pressure;altitude;pressure_sealevel;temperature;humidity
56330;BME280;42236;48.058;10.632;2023-02-01T00:01:10;95275.91;;;1.79;88.72
56330;BME280;42236;48.058;10.632;2023-02-01T00:03:56;95266.06;;;1.80;88.95
56330;BME280;42236;48.058;10.632;2023-02-01T00:06:42;95256.22;;;1.80;89.06
56330;BME280;42236;48.058;10.632;2023-02-01T00:09:27;95255.44;;;1.75;89.37
56330;BME280;42236;48.058;10.632;2023-02-01T00:12:13;95249.59;;;1.73;89.41
56330;BME280;42236;48.058;10.632;2023-02-01T00:14:59;95245.84;;;1.74;89.29
56330;BME280;42236;48.058;10.632;2023-02-01T00:17:44;95251.69;;;1.76;89.26
56330;BME280;42236;48.058;10.632;2023-02-01T00:20:30;95253.81;;;1.74;89.30
56330;BME280;42236;48.058;10.632;2023-02-01T00:23:15;95257.03;;;1.76;89.33
56330;BME280;42236;48.058;10.632;2023-02-01T00:26:05;95262.34;;;1.76;89.28
56330;BME280;42236;48.058;10.632;2023-02-01T00:28:51;95258.09;;;1.75;89.28
56330;BME280;42236;48.058;10.632;2023-02-01T00:31:36;95252.78;;;1.69;89.96
56330;BME280;42236;48.058;10.632;2023-02-01T00:34:23;95250.66;;;1.66;90.36
56330;BME280;42236;48.058;10.632;2023-02-01T00:37:08;95251.75;;;1.60;90.83
56330;BME280;42236;48.058;10.632;2023-02-01T00:39:54;95235.50;;;1.57;91.15
56330;BME280;42236;48.058;10.632;2023-02-01T00:42:41;95248.81;;;1.52;92.16
56330;BME280;42236;48.058;10.632;2023-02-01T00:45:26;95249.06;;;1.45;92.44
56330;BME280;42236;48.058;10.632;2023-02-01T00:48:12;95250.16;;;1.39;93.15
56330;BME280;42236;48.058;10.632;2023-02-01T00:51:06;95238.19;;;1.36;93.36
56330;BME280;42236;48.058;10.632;2023-02-01T00:53:52;95235.25;;;1.33;93.60
56330;BME280;42236;48.058;10.632;2023-02-01T00:56:38;95249.09;;;1.24;94.66
56330;BME280;42236;48.058;10.632;2023-02-01T00:59:24;95249.09;;;1.24;94.68
56330;BME280;42236;48.058;10.632;2023-02-01T01:02:10;95240.88;;;1.26;94.37
56330;BME280;42236;48.058;10.632;2023-02-01T01:04:57;95233.41;;;1.23;94.75
56330;BME280;42236;48.058;10.632;2023-02-01T01:07:43;95233.69;;;1.16;96.15
56330;BME280;42236;48.058;10.632;2023-02-01T01:10:29;95235.28;;;1.12;97.11
56330;BME280;42236;48.058;10.632;2023-02-01T01:13:15;95233.41;;;1.08;97.58
56330;BME280;42236;48.058;10.632;2023-02-01T01:16:01;95232.88;;;1.05;97.39
56330;BME280;42236;48.058;10.632;2023-02-01T01:18:48;95231.03;;;1.06;96.97
56330;BME280;42236;48.058;10.632;2023-02-01T01:21:33;95233.69;;;1.01;96.99
56330;BME280;42236;48.058;10.632;2023-02-01T01:24:19;95223.59;;;0.98;97.71
56330;BME280;42236;48.058;10.632;2023-02-01T01:27:05;95229.44;;;0.95;97.77
56330;BME280;42236;48.058;10.632;2023-02-01T01:29:50;95225.72;;;0.96;97.98
56330;BME280;42236;48.058;10.632;2023-02-01T01:32:36;95213.50;;;0.95;98.21
56330;BME280;42236;48.058;10.632;2023-02-01T01:35:22;95221.47;;;0.95;98.27
56330;BME280;42236;48.058;10.632;2023-02-01T01:38:09;95217.47;;;0.97;97.92
56330;BME280;42236;48.058;10.632;2023-02-01T01:40:55;95220.94;;;0.98;97.70
56330;BME280;42236;48.058;10.632;2023-02-01T01:44:02;95218.28;;;0.98;98.37
56330;BME280;42236;48.058;10.632;2023-02-01T01:46:48;95226.00;;;0.99;98.30
56330;BME280;42236;48.058;10.632;2023-02-01T01:49:33;95225.44;;;1.02;97.97
56330;BME280;42236;48.058;10.632;2023-02-01T01:52:19;95217.72;;;1.06;97.80
56330;BME280;42236;48.058;10.632;2023-02-01T01:55:05;95206.84;;;1.08;97.96
56330;BME280;42236;48.058;10.632;2023-02-01T01:57:57;95209.25;;;1.09;98.00
56330;BME280;42236;48.058;10.632;2023-02-01T02:00:46;95196.22;;;1.13;97.79
56330;BME280;42236;48.058;10.632;2023-02-01T02:03:38;95194.34;;;1.13;97.47
56330;BME280;42236;48.058;10.632;2023-02-01T02:09:17;95186.91;;;1.15;97.65
56330;BME280;42236;48.058;10.632;2023-02-01T02:12:03;95177.38;;;1.14;97.78
56330;BME280;42236;48.058;10.632;2023-02-01T02:14:49;95179.47;;;1.17;97.31
56330;BME280;42236;48.058;10.632;2023-02-01T02:18:17;95190.66;;;1.19;97.36
56330;BME280;42236;48.058;10.632;2023-02-01T02:21:16;95184.53;;;1.24;97.04
56330;BME280;42236;48.058;10.632;2023-02-01T02:39:51;95185.84;;;1.32;96.38
56330;BME280;42236;48.058;10.632;2023-02-01T02:43:21;95179.97;;;1.35;95.95
56330;BME280;42236;48.058;10.632;2023-02-01T02:46:28;95186.91;;;1.36;95.82
56330;BME280;42236;48.058;10.632;2023-02-01T02:49:47;95188.22;;;1.38;95.52
56330;BME280;42236;48.058;10.632;2023-02-01T02:53:02;95185.81;;;1.42;95.18
56330;BME280;42236;48.058;10.632;2023-02-01T02:56:09;95185.28;;;1.40;95.16
56330;BME280;42236;48.058;10.632;2023-02-01T02:59:17;95183.69;;;1.44;94.66
56330;BME280;42236;48.058;10.632;2023-02-01T03:02:26;95171.75;;;1.41;94.81
56330;BME280;42236;48.058;10.632;2023-02-01T03:05:33;95180.78;;;1.40;94.76
56330;BME280;42236;48.058;10.632;2023-02-01T03:08:27;95175.19;;;1.42;94.45
56330;BME280;42236;48.058;10.632;2023-02-01T03:11:14;95167.50;;;1.40;94.53
56330;BME280;42236;48.058;10.632;2023-02-01T03:14:02;95176.25;;;1.41;94.26
56330;BME280;42236;48.058;10.632;2023-02-01T03:16:56;95156.59;;;1.37;94.19
56330;BME280;42236;48.058;10.632;2023-02-01T03:19:46;95174.13;;;1.43;93.74
56330;BME280;42236;48.058;10.632;2023-02-01T03:22:35;95175.97;;;1.42;93.82
56330;BME280;42236;48.058;10.632;2023-02-01T03:25:25;95175.19;;;1.42;93.84
56330;BME280;42236;48.058;10.632;2023-02-01T03:28:12;95169.84;;;1.47;93.20
56330;BME280;42236;48.058;10.632;2023-02-01T03:31:01;95166.69;;;1.50;93.28
56330;BME280;42236;48.058;10.632;2023-02-01T03:33:47;95162.94;;;1.51;93.01
56330;BME280;42236;48.058;10.632;2023-02-01T03:36:38;95155.75;;;1.52;92.80
56330;BME280;42236;48.058;10.632;2023-02-01T03:39:39;95161.59;;;1.54;92.47
56330;BME280;42236;48.058;10.632;2023-02-01T03:42:32;95151.75;;;1.54;92.21
56330;BME280;42236;48.058;10.632;2023-02-01T03:45:26;95150.41;;;1.57;92.10
56330;BME280;42236;48.058;10.632;2023-02-01T03:48:14;95152.03;;;1.58;92.08
56330;BME280;42236;48.058;10.632;2023-02-01T03:51:02;95154.94;;;1.56;91.79
56330;BME280;42236;48.058;10.632;2023-02-01T03:53:51;95147.75;;;1.57;91.84
56330;BME280;42236;48.058;10.632;2023-02-01T03:56:42;95152.28;;;1.56;91.67
56330;BME280;42236;48.058;10.632;2023-02-01T03:59:29;95156.56;;;1.57;91.58
56330;BME280;42236;48.058;10.632;2023-02-01T04:02:15;95151.75;;;1.59;91.46
56330;BME280;42236;48.058;10.632;2023-02-01T04:05:01;95160.53;;;1.60;91.37
56330;BME280;42236;48.058;10.632;2023-02-01T04:07:47;95171.69;;;1.62;91.33
56330;BME280;42236;48.058;10.632;2023-02-01T04:10:32;95163.44;;;1.63;91.31
56330;BME280;42236;48.058;10.632;2023-02-01T04:13:18;95160.78;;;1.63;91.35
56330;BME280;42236;48.058;10.632;2023-02-01T04:16:04;95173.53;;;1.61;91.21
56330;BME280;42236;48.058;10.632;2023-02-01T04:18:50;95172.75;;;1.61;91.29
56330;BME280;42236;48.058;10.632;2023-02-01T04:21:35;95179.41;;;1.58;90.97
56330;BME280;42236;48.058;10.632;2023-02-01T04:24:21;95179.94;;;1.60;90.96
56330;BME280;42236;48.058;10.632;2023-02-01T04:27:07;95186.06;;;1.61;90.88
56330;BME280;42236;48.058;10.632;2023-02-01T04:29:52;95182.06;;;1.63;90.80
56330;BME280;42236;48.058;10.632;2023-02-01T04:32:39;95187.13;;;1.60;90.70
56330;BME280;42236;48.058;10.632;2023-02-01T04:35:25;95177.28;;;1.60;90.54
56330;BME280;42236;48.058;10.632;2023-02-01T04:38:10;95166.66;;;1.60;90.71
56330;BME280;42236;48.058;10.632;2023-02-01T04:40:56;95176.22;;;1.56;91.16
56330;BME280;42236;48.058;10.632;2023-02-01T04:43:42;95175.44;;;1.56;91.00
56330;BME280;42236;48.058;10.632;2023-02-01T04:46:27;95173.56;;;1.56;91.03
56330;BME280;42236;48.058;10.632;2023-02-01T04:49:14;95165.59;;;1.56;90.65
56330;BME280;42236;48.058;10.632;2023-02-01T04:51:59;95159.22;;;1.57;90.87
56330;BME280;42236;48.058;10.632;2023-02-01T04:54:45;95160.81;;;1.53;90.42
56330;BME280;42236;48.058;10.632;2023-02-01T04:57:30;95167.19;;;1.57;90.42
56330;BME280;42236;48.058;10.632;2023-02-01T05:00:16;95160.81;;;1.58;90.13
56330;BME280;42236;48.058;10.632;2023-02-01T05:03:02;95169.31;;;1.60;90.41
56330;BME280;42236;48.058;10.632;2023-02-01T05:05:48;95160.53;;;1.60;90.14
56330;BME280;42236;48.058;10.632;2023-02-01T05:08:34;95163.69;;;1.62;90.00
56330;BME280;42236;48.058;10.632;2023-02-01T05:11:19;95163.69;;;1.62;90.02
56330;BME280;42236;48.058;10.632;2023-02-01T05:14:24;95158.94;;;1.59;90.04
56330;BME280;42236;48.058;10.632;2023-02-01T05:17:09;95162.91;;;1.61;89.82
56330;BME280;42236;48.058;10.632;2023-02-01T05:19:55;95185.78;;;1.62;89.67
56330;BME280;42236;48.058;10.632;2023-02-01T05:22:41;95182.59;;;1.60;89.39
56330;BME280;42236;48.058;10.632;2023-02-01T05:25:27;95184.97;;;1.62;89.64
56330;BME280;42236;48.058;10.632;2023-02-01T05:28:13;95190.03;;;1.63;89.40
56330;BME280;42236;48.058;10.632;2023-02-01T05:30:58;95178.88;;;1.61;89.51
56330;BME280;42236;48.058;10.632;2023-02-01T05:33:44;95191.63;;;1.59;90.08
56330;BME280;42236;48.058;10.632;2023-02-01T05:36:30;95194.03;;;1.61;90.05
56330;BME280;42236;48.058;10.632;2023-02-01T05:39:16;95195.91;;;1.60;89.74
56330;BME280;42236;48.058;10.632;2023-02-01T05:42:01;95202.78;;;1.61;90.04
56330;BME280;42236;48.058;10.632;2023-02-01T05:44:47;95181.53;;;1.61;89.71
56330;BME280;42236;48.058;10.632;2023-02-01T05:47:33;95191.38;;;1.61;89.56
56330;BME280;42236;48.058;10.632;2023-02-01T05:50:18;95178.88;;;1.61;89.18
56330;BME280;42236;48.058;10.632;2023-02-01T05:53:04;95179.13;;;1.65;89.56
56330;BME280;42236;48.058;10.632;2023-02-01T05:55:50;95169.81;;;1.67;89.39
56330;BME280;42236;48.058;10.632;2023-02-01T05:58:35;95183.13;;;1.67;89.25
56330;BME280;42236;48.058;10.632;2023-02-01T06:01:21;95197.19;;;1.68;89.12
56330;BME280;42236;48.058;10.632;2023-02-01T06:04:07;95193.75;;;1.67;88.81
56330;BME280;42236;48.058;10.632;2023-02-01T06:06:52;95197.47;;;1.66;88.86
56330;BME280;42236;48.058;10.632;2023-02-01T06:09:38;95198.28;;;1.67;88.88
56330;BME280;42236;48.058;10.632;2023-02-01T06:12:24;95206.53;;;1.65;88.53
56330;BME280;42236;48.058;10.632;2023-02-01T06:15:10;95226.22;;;1.64;89.27
56330;BME280;42236;48.058;10.632;2023-02-01T06:17:56;95225.69;;;1.62;88.99
56330;BME280;42236;48.058;10.632;2023-02-01T06:20:42;95237.63;;;1.65;89.46
56330;BME280;42236;48.058;10.632;2023-02-01T06:23:29;95232.84;;;1.62;89.32
56330;BME280;42236;48.058;10.632;2023-02-01T06:26:15;95219.28;;;1.58;89.24
56330;BME280;42236;48.058;10.632;2023-02-01T06:29:03;95224.06;;;1.61;89.25
56330;BME280;42236;48.058;10.632;2023-02-01T06:31:49;95218.75;;;1.61;89.93
56330;BME280;42236;48.058;10.632;2023-02-01T06:34:34;95218.75;;;1.56;90.20
56330;BME280;42236;48.058;10.632;2023-02-01T06:37:20;95212.38;;;1.52;90.63
56330;BME280;42236;48.058;10.632;2023-02-01T06:40:06;95208.38;;;1.55;90.35
56330;BME280;42236;48.058;10.632;2023-02-01T06:42:52;95200.69;;;1.58;89.92
56330;BME280;42236;48.058;10.632;2023-02-01T06:45:37;95209.19;;;1.60;90.06
56330;BME280;42236;48.058;10.632;2023-02-01T06:48:23;95206.25;;;1.62;89.71
56330;BME280;42236;48.058;10.632;2023-02-01T06:51:20;95203.09;;;1.60;89.79
56330;BME280;42236;48.058;10.632;2023-02-01T06:54:07;95200.94;;;1.62;89.72
56330;BME280;42236;48.058;10.632;2023-02-01T06:56:52;95183.66;;;1.64;89.86
56330;BME280;42236;48.058;10.632;2023-02-01T06:59:38;95177.81;;;1.67;89.78
56330;BME280;42236;48.058;10.632;2023-02-01T07:02:24;95183.66;;;1.64;89.83
56330;BME280;42236;48.058;10.632;2023-02-01T07:05:09;95201.72;;;1.67;89.57
56330;BME280;42236;48.058;10.632;2023-02-01T07:07:55;95195.88;;;1.65;89.83
56330;BME280;42236;48.058;10.632;2023-02-01T07:10:41;95202.00;;;1.66;89.97
56330;BME280;42236;48.058;10.632;2023-02-01T07:13:26;95197.47;;;1.66;89.79
56330;BME280;42236;48.058;10.632;2023-02-01T07:16:15;95206.75;;;1.69;89.65
56330;BME280;42236;48.058;10.632;2023-02-01T07:19:01;95200.09;;;1.71;89.65
56330;BME280;42236;48.058;10.632;2023-02-01T07:21:47;95177.25;;;1.70;89.54
56330;BME280;42236;48.058;10.632;2023-02-01T07:24:33;95182.81;;;1.69;89.63
56330;BME280;42236;48.058;10.632;2023-02-01T07:27:19;95181.50;;;1.71;89.61
56330;BME280;42236;48.058;10.632;2023-02-01T07:30:06;95195.84;;;1.76;89.21
56330;BME280;42236;48.058;10.632;2023-02-01T07:32:52;95175.63;;;1.80;88.83
56330;BME280;42236;48.058;10.632;2023-02-01T07:35:37;95191.03;;;1.83;88.56
56330;BME280;42236;48.058;10.632;2023-02-01T07:38:23;95176.94;;;1.87;88.46
56330;BME280;42236;48.058;10.632;2023-02-01T07:41:09;95167.88;;;1.88;88.32
56330;BME280;42236;48.058;10.632;2023-02-01T07:43:55;95190.50;;;1.91;87.58
56330;BME280;42236;48.058;10.632;2023-02-01T07:46:41;95189.66;;;1.96;87.44
56330;BME280;42236;48.058;10.632;2023-02-01T07:49:28;95187.53;;;1.98;87.60
56330;BME280;42236;48.058;10.632;2023-02-01T07:52:14;95189.91;;;1.99;87.38
56330;BME280;42236;48.058;10.632;2023-02-01T07:55:02;95201.34;;;2.00;87.09
56330;BME280;42236;48.058;10.632;2023-02-01T07:57:48;95196.31;;;1.98;86.92
56330;BME280;42236;48.058;10.632;2023-02-01T08:00:34;95192.06;;;1.97;86.74
56330;BME280;42236;48.058;10.632;2023-02-01T08:03:38;95186.72;;;1.97;86.63
56330;BME280;42236;48.058;10.632;2023-02-01T08:06:24;95191.50;;;2.00;87.04
56330;BME280;42236;48.058;10.632;2023-02-01T08:09:10;95198.16;;;1.98;86.46
56330;BME280;42236;48.058;10.632;2023-02-01T08:11:56;95189.38;;;2.02;86.87
56330;BME280;42236;48.058;10.632;2023-02-01T08:14:42;95201.09;;;2.01;86.59
56330;BME280;42236;48.058;10.632;2023-02-01T08:17:27;95206.41;;;2.06;86.41
56330;BME280;42236;48.058;10.632;2023-02-01T08:20:14;95209.81;;;2.12;86.01
56330;BME280;42236;48.058;10.632;2023-02-01T08:22:59;95221.78;;;2.14;85.86
56330;BME280;42236;48.058;10.632;2023-02-01T08:25:45;95233.50;;;2.19;86.05
56330;BME280;42236;48.058;10.632;2023-02-01T08:28:31;95232.41;;;2.20;86.01
56330;BME280;42236;48.058;10.632;2023-02-01T08:31:19;95245.47;;;2.21;86.09
56330;BME280;42236;48.058;10.632;2023-02-01T08:34:07;95236.69;;;2.21;86.33
56330;BME280;42236;48.058;10.632;2023-02-01T08:36:54;95234.56;;;2.18;86.64
56330;BME280;42236;48.058;10.632;2023-02-01T08:39:45;95244.16;;;2.13;86.50
56330;BME280;42236;48.058;10.632;2023-02-01T08:42:32;95240.69;;;2.18;86.67
56330;BME280;42236;48.058;10.632;2023-02-01T08:45:36;95239.34;;;2.21;86.57
56330;BME280;42236;48.058;10.632;2023-02-01T08:48:22;95241.19;;;2.25;86.46
56330;BME280;42236;48.058;10.632;2023-02-01T08:51:11;95239.06;;;2.27;86.12
56330;BME280;42236;48.058;10.632;2023-02-01T08:53:57;95237.16;;;2.33;86.87
56330;BME280;42236;48.058;10.632;2023-02-01T08:56:43;95227.56;;;2.37;86.41
56330;BME280;42236;48.058;10.632;2023-02-01T08:59:28;95216.66;;;2.33;85.94
56330;BME280;42236;48.058;10.632;2023-02-01T09:02:15;95219.28;;;2.39;86.15
56330;BME280;42236;48.058;10.632;2023-02-01T09:05:01;95207.84;;;2.38;86.15
56330;BME280;42236;48.058;10.632;2023-02-01T09:07:47;95232.59;;;2.39;85.92
56330;BME280;42236;48.058;10.632;2023-02-01T09:10:33;95241.91;;;2.41;86.04
56330;BME280;42236;48.058;10.632;2023-02-01T09:13:18;95244.53;;;2.46;86.33
56330;BME280;42236;48.058;10.632;2023-02-01T09:16:05;95217.66;;;2.48;86.60
56330;BME280;42236;48.058;10.632;2023-02-01T09:18:51;95221.63;;;2.50;86.54
56330;BME280;42236;48.058;10.632;2023-02-01T09:21:36;95217.91;;;2.46;86.07
56330;BME280;42236;48.058;10.632;2023-02-01T09:24:22;95207.25;;;2.46;86.53
56330;BME280;42236;48.058;10.632;2023-02-01T09:27:08;95208.09;;;2.42;86.12
56330;BME280;42236;48.058;10.632;2023-02-01T09:29:53;95224.28;;;2.50;86.30
56330;BME280;42236;48.058;10.632;2023-02-01T09:32:39;95238.66;;;2.54;86.46
56330;BME280;42236;48.058;10.632;2023-02-01T09:35:25;95247.19;;;2.56;86.62
56330;BME280;42236;48.058;10.632;2023-02-01T09:38:11;95252.50;;;2.56;86.47
56330;BME280;42236;48.058;10.632;2023-02-01T09:40:57;95254.88;;;2.58;86.25
56330;BME280;42236;48.058;10.632;2023-02-01T09:43:58;95258.34;;;2.53;85.84
56330;BME280;42236;48.058;10.632;2023-02-01T09:46:45;95259.69;;;2.51;86.51
56330;BME280;42236;48.058;10.632;2023-02-01T09:49:43;95248.78;;;2.52;86.30
56330;BME280;42236;48.058;10.632;2023-02-01T09:55:41;95241.81;;;2.62;85.49
56330;BME280;42236;48.058;10.632;2023-02-01T09:58:52;95243.09;;;2.69;85.12
56330;BME280;42236;48.058;10.632;2023-02-01T10:01:40;95244.09;;;2.84;85.37
56330;BME280;42236;48.058;10.632;2023-02-01T10:04:28;95234.19;;;2.89;84.85
56330;BME280;42236;48.058;10.632;2023-02-01T10:10:35;95254.19;;;2.87;84.03
56330;BME280;42236;48.058;10.632;2023-02-01T10:13:32;95257.91;;;2.91;84.46
56330;BME280;42236;48.058;10.632;2023-02-01T10:16:36;95259.28;;;2.83;84.36
56330;BME280;42236;48.058;10.632;2023-02-01T10:19:31;95254.75;;;2.84;84.42
56330;BME280;42236;48.058;10.632;2023-02-01T10:22:45;95255.28;;;2.86;84.46
56330;BME280;42236;48.058;10.632;2023-02-01T10:28:37;95238.16;;;2.92;84.28
56330;BME280;42236;48.058;10.632;2023-02-01T10:31:35;95247.19;;;2.96;83.72
56330;BME280;42236;48.058;10.632;2023-02-01T10:34:26;95244.75;;;2.99;83.86
56330;BME280;42236;48.058;10.632;2023-02-01T10:37:23;95226.19;;;2.89;83.38
56330;BME280;42236;48.058;10.632;2023-02-01T10:40:21;95235.50;;;2.92;84.13
56330;BME280;42236;48.058;10.632;2023-02-01T10:43:09;95231.47;;;2.94;84.38
56330;BME280;42236;48.058;10.632;2023-02-01T10:45:55;95245.41;;;2.86;83.64
56330;BME280;42236;48.058;10.632;2023-02-01T10:48:41;95247.81;;;2.88;84.07
56330;BME280;42236;48.058;10.632;2023-02-01T10:54:37;95245.88;;;2.93;84.18
56330;BME280;42236;48.058;10.632;2023-02-01T10:57:26;95245.41;;;2.86;83.71
56330;BME280;42236;48.058;10.632;2023-02-01T11:00:21;95247.31;;;2.81;83.78
56330;BME280;42236;48.058;10.632;2023-02-01T11:06:36;95242.00;;;2.75;84.20
56330;BME280;42236;48.058;10.632;2023-02-01T11:09:24;95240.38;;;2.80;84.90
56330;BME280;42236;48.058;10.632;2023-02-01T11:12:27;95245.69;;;2.80;84.49
56330;BME280;42236;48.058;10.632;2023-02-01T11:15:23;95247.00;;;2.82;84.71
56330;BME280;42236;48.058;10.632;2023-02-01T11:18:18;95243.78;;;2.90;84.55
56330;BME280;42236;48.058;10.632;2023-02-01T11:21:06;95229.38;;;2.91;84.92
56330;BME280;42236;48.058;10.632;2023-02-01T11:23:52;95240.00;;;2.96;84.49
56330;BME280;42236;48.058;10.632;2023-02-01T11:26:40;95246.63;;;2.99;84.17
56330;BME280;42236;48.058;10.632;2023-02-01T11:29:32;95240.00;;;2.96;83.95
56330;BME280;42236;48.058;10.632;2023-02-01T11:32:22;95225.31;;;2.99;83.70
56330;BME280;42236;48.058;10.632;2023-02-01T11:35:15;95231.09;;;3.11;82.83
56330;BME280;42236;48.058;10.632;2023-02-01T11:38:11;95243.31;;;3.17;82.21
56330;BME280;42236;48.058;10.632;2023-02-01T11:41:14;95228.88;;;3.24;82.44
56330;BME280;42236;48.058;10.632;2023-02-01T11:44:01;95236.84;;;3.29;82.92
56330;BME280;42236;48.058;10.632;2023-02-01T11:47:26;95204.59;;;3.25;82.16
56330;BME280;42236;48.058;10.632;2023-02-01T11:50:16;95211.03;;;3.24;81.26
56330;BME280;42236;48.058;10.632;2023-02-01T11:56:36;95213.56;;;3.05;82.40
56330;BME280;42236;48.058;10.632;2023-02-01T12:05:58;95199.00;;;2.92;82.59
56330;BME280;42236;48.058;10.632;2023-02-01T12:09:51;95212.56;;;2.96;83.09
56330;BME280;42236;48.058;10.632;2023-02-01T12:15:42;95193.63;;;2.97;83.22
56330;BME280;42236;48.058;10.632;2023-02-01T12:31:27;95191.81;;;2.93;83.53
56330;BME280;42236;48.058;10.632;2023-02-01T12:34:29;95177.69;;;2.87;83.43
56330;BME280;42236;48.058;10.632;2023-02-01T12:37:31;95182.50;;;2.90;83.92
56330;BME280;42236;48.058;10.632;2023-02-01T12:40:26;95170.16;;;2.99;83.66
56330;BME280;42236;48.058;10.632;2023-02-01T12:43:18;95149.88;;;3.04;83.50
56330;BME280;42236;48.058;10.632;2023-02-01T12:46:16;95141.81;;;3.09;83.37
56330;BME280;42236;48.058;10.632;2023-02-01T12:52:35;95142.59;;;3.14;82.94
56330;BME280;42236;48.058;10.632;2023-02-01T12:55:23;95135.38;;;3.15;82.43
56330;BME280;42236;48.058;10.632;2023-02-01T12:58:17;95134.81;;;3.18;82.16
56330;BME280;42236;48.058;10.632;2023-02-01T13:01:28;95135.28;;;3.25;81.88
56330;BME280;42236;48.058;10.632;2023-02-01T13:04:18;95129.94;;;3.25;81.10
56330;BME280;42236;48.058;10.632;2023-02-01T13:07:11;95144.00;;;3.36;81.40
56330;BME280;42236;48.058;10.632;2023-02-01T13:10:42;95133.59;;;3.34;80.81
56330;BME280;42236;48.058;10.632;2023-02-01T13:18:50;95139.69;;;3.11;80.25
56330;BME280;42236;48.058;10.632;2023-02-01T13:21:42;95138.63;;;3.12;81.02
56330;BME280;42236;48.058;10.632;2023-02-01T13:24:50;95135.44;;;3.10;80.24
56330;BME280;42236;48.058;10.632;2023-02-01T13:27:38;95142.06;;;3.12;80.92
56330;BME280;42236;48.058;10.632;2023-02-01T13:30:28;95129.00;;;3.11;80.61
56330;BME280;42236;48.058;10.632;2023-02-01T13:33:35;95137.28;;;3.09;80.60
56330;BME280;42236;48.058;10.632;2023-02-01T13:36:28;95137.06;;;3.06;80.72
56330;BME280;42236;48.058;10.632;2023-02-01T13:42:56;95146.94;;;3.05;80.67
56330;BME280;42236;48.058;10.632;2023-02-01T13:45:49;95153.03;;;3.06;80.80
56330;BME280;42236;48.058;10.632;2023-02-01T13:48:41;95154.41;;;3.03;80.27
56330;BME280;42236;48.058;10.632;2023-02-01T13:51:43;95156.50;;;3.06;81.09
56330;BME280;42236;48.058;10.632;2023-02-01T13:54:33;95149.63;;;3.00;80.68
56330;BME280;42236;48.058;10.632;2023-02-01T13:57:38;95155.75;;;3.01;80.70
56330;BME280;42236;48.058;10.632;2023-02-01T14:00:35;95153.63;;;3.03;81.11
56330;BME280;42236;48.058;10.632;2023-02-01T14:03:42;95156.88;;;2.94;81.21
56330;BME280;42236;48.058;10.632;2023-02-01T14:09:19;95145.72;;;2.87;81.65
56330;BME280;42236;48.058;10.632;2023-02-01T14:12:43;95162.84;;;2.81;82.29
56330;BME280;42236;48.058;10.632;2023-02-01T14:15:29;95166.34;;;2.76;83.18
56330;BME280;42236;48.058;10.632;2023-02-01T14:21:24;95172.56;;;2.62;84.52
56330;BME280;42236;48.058;10.632;2023-02-01T14:26:58;95177.00;;;2.27;86.09
56330;BME280;42236;48.058;10.632;2023-02-01T14:29:51;95165.56;;;2.26;86.50
56330;BME280;42236;48.058;10.632;2023-02-01T14:32:43;95164.25;;;2.24;87.20
56330;BME280;42236;48.058;10.632;2023-02-01T14:35:32;95163.22;;;2.20;87.78
56330;BME280;42236;48.058;10.632;2023-02-01T14:38:20;95161.06;;;2.22;88.32
56330;BME280;42236;48.058;10.632;2023-02-01T14:41:29;95157.34;;;2.23;88.45
56330;BME280;42236;48.058;10.632;2023-02-01T14:44:24;95151.47;;;2.26;88.69
56330;BME280;42236;48.058;10.632;2023-02-01T14:59:00;95165.22;;;1.88;88.29
56330;BME280;42236;48.058;10.632;2023-02-01T15:01:55;95148.25;;;1.79;88.85
56330;BME280;42236;48.058;10.632;2023-02-01T15:04:41;95171.94;;;1.70;90.18
56330;BME280;42236;48.058;10.632;2023-02-01T15:07:28;95168.22;;;1.61;91.10
56330;BME280;42236;48.058;10.632;2023-02-01T15:10:14;95164.50;;;1.67;89.70
56330;BME280;42236;48.058;10.632;2023-02-01T15:13:00;95171.94;;;1.70;89.41
56330;BME280;42236;48.058;10.632;2023-02-01T15:16:00;95175.88;;;1.78;89.10
56330;BME280;42236;48.058;10.632;2023-02-01T15:18:45;95176.69;;;1.84;89.15
56330;BME280;42236;48.058;10.632;2023-02-01T15:21:42;95176.38;;;1.90;88.64
56330;BME280;42236;48.058;10.632;2023-02-01T15:24:29;95172.91;;;1.95;88.20
56330;BME280;42236;48.058;10.632;2023-02-01T15:27:16;95176.34;;;2.01;88.26
56330;BME280;42236;48.058;10.632;2023-02-01T15:30:07;95180.34;;;2.03;88.14
56330;BME280;42236;48.058;10.632;2023-02-01T15:33:17;95185.09;;;2.06;87.77
56330;BME280;42236;48.058;10.632;2023-02-01T15:39:24;95189.31;;;2.12;87.79
56330;BME280;42236;48.058;10.632;2023-02-01T15:42:12;95186.66;;;2.18;87.55
56330;BME280;42236;48.058;10.632;2023-02-01T15:45:04;95190.66;;;2.20;86.80
56330;BME280;42236;48.058;10.632;2023-02-01T15:47:51;95195.66;;;2.27;86.79
56330;BME280;42236;48.058;10.632;2023-02-01T15:50:39;95200.44;;;2.30;86.42
56330;BME280;42236;48.058;10.632;2023-02-01T15:53:26;95201.47;;;2.34;86.39
56330;BME280;42236;48.058;10.632;2023-02-01T15:56:21;95199.63;;;2.34;84.77
56330;BME280;42236;48.058;10.632;2023-02-01T15:59:16;95191.88;;;2.38;84.99
56330;BME280;42236;48.058;10.632;2023-02-01T16:02:02;95202.50;;;2.43;85.01
56330;BME280;42236;48.058;10.632;2023-02-01T16:04:48;95205.69;;;2.45;84.79
56330;BME280;42236;48.058;10.632;2023-02-01T16:07:36;95202.47;;;2.48;84.39
56330;BME280;42236;48.058;10.632;2023-02-01T16:10:27;95191.81;;;2.48;83.10
56330;BME280;42236;48.058;10.632;2023-02-01T16:13:14;95205.91;;;2.54;83.53
56330;BME280;42236;48.058;10.632;2023-02-01T16:16:00;95200.81;;;2.58;83.19
56330;BME280;42236;48.058;10.632;2023-02-01T16:18:45;95203.47;;;2.58;83.33
56330;BME280;42236;48.058;10.632;2023-02-01T16:21:31;95198.19;;;2.52;82.47
56330;BME280;42236;48.058;10.632;2023-02-01T16:24:17;95193.91;;;2.56;82.70
56330;BME280;42236;48.058;10.632;2023-02-01T16:27:02;95204.81;;;2.55;81.96
56330;BME280;42236;48.058;10.632;2023-02-01T16:29:48;95203.22;;;2.59;82.19
56330;BME280;42236;48.058;10.632;2023-02-01T16:32:35;95204.56;;;2.56;82.07
56330;BME280;42236;48.058;10.632;2023-02-01T16:35:35;95201.38;;;2.54;81.43
56330;BME280;42236;48.058;10.632;2023-02-01T16:38:21;95212.25;;;2.58;81.62